Time;durP1;ratioP1;P1;durP2;ratioP2;P2;SDS_P1;SDS_P2;PMS_P1;PMS_P2;Temp;Humidity;BMP_temperature;BMP_pressure;BME280_temperature;BME280_humidity;BME280_pressure;Samples;Min_cycle;Max_cycle;Signal;HPM_P1;HPM_P2
2021/07/24 00:01:38;;;;;;;7.80;5.07;;;17.20;99.90;;;;;;4207486;28;20450;-61
2021/07/24 00:03:40;;;;;;;8.98;4.85;;;17.20;99.90;;;;;;4208906;28;20036;-61
2021/07/24 00:05:42;;;;;;;7.43;4.63;;;17.10;99.90;;;;;;4207226;28;20043;-61
2021/07/24 00:07:43;;;;;;;7.90;4.85;;;17.10;99.90;;;;;;4208709;28;20039;-61
2021/07/24 00:09:44;;;;;;;7.85;5.45;;;17.10;99.90;;;;;;4207656;28;20044;-60
2021/07/24 00:11:45;;;;;;;9.77;4.75;;;17.10;99.90;;;;;;4208169;28;20750;-62
2021/07/24 00:13:46;;;;;;;6.50;4.93;;;17.00;99.90;;;;;;4207469;28;20081;-61
2021/07/24 00:15:47;;;;;;;5.95;4.85;;;17.00;99.90;;;;;;4207547;28;20032;-60
2021/07/24 00:17:48;;;;;;;8.35;4.20;;;17.00;99.90;;;;;;4207889;28;20112;-60
2021/07/24 00:19:50;;;;;;;7.65;5.20;;;17.00;99.90;;;;;;4207184;28;20129;-60
2021/07/24 00:21:51;;;;;;;9.18;4.75;;;16.90;99.90;;;;;;4208072;28;20786;-60
2021/07/24 00:23:52;;;;;;;10.13;4.97;;;16.90;99.90;;;;;;4207105;28;20160;-60
2021/07/24 00:25:53;;;;;;;7.03;4.47;;;16.90;99.90;;;;;;4208296;28;20044;-60
2021/07/24 00:27:54;;;;;;;7.05;4.80;;;16.80;99.90;;;;;;4207391;28;20643;-61
2021/07/24 00:29:55;;;;;;;9.45;5.38;;;16.80;99.90;;;;;;4209148;28;20036;-60
2021/07/24 00:31:56;;;;;;;6.13;4.70;;;16.70;99.90;;;;;;4206850;28;20085;-61
2021/07/24 00:33:57;;;;;;;7.72;4.90;;;16.70;99.90;;;;;;4208131;28;20036;-61
2021/07/24 00:35:58;;;;;;;8.00;5.30;;;16.70;99.90;;;;;;4207177;28;20437;-61
2021/07/24 00:38:01;;;;;;;9.20;4.82;;;16.70;99.90;;;;;;4208028;28;20032;-61
2021/07/24 00:40:03;;;;;;;8.38;5.28;;;16.60;99.90;;;;;;4206559;28;20511;-61
2021/07/24 00:42:21;;;;;;;6.18;4.63;;;16.60;99.90;;;;;;4207314;28;20101;-61
2021/07/24 00:44:24;;;;;;;9.40;4.82;;;16.60;99.90;;;;;;4206944;28;20513;-61
2021/07/24 00:46:30;;;;;;;10.38;4.63;;;16.60;99.90;;;;;;4207874;28;20094;-61
2021/07/24 00:48:37;;;;;;;9.43;4.90;;;16.50;99.90;;;;;;4207233;28;20090;-60
2021/07/24 00:50:39;;;;;;;8.20;5.10;;;16.50;99.90;;;;;;4207746;28;20524;-61
2021/07/24 00:52:42;;;;;;;13.88;5.60;;;16.50;99.90;;;;;;4206923;28;20081;-60
2021/07/24 00:54:43;;;;;;;7.47;4.88;;;16.40;99.90;;;;;;4206715;28;20529;-60
2021/07/24 00:56:44;;;;;;;8.80;4.25;;;16.40;99.90;;;;;;4208278;28;20480;-60
2021/07/24 00:58:45;;;;;;;6.50;5.03;;;16.40;99.90;;;;;;4207033;28;20481;-61
2021/07/24 01:00:46;;;;;;;7.18;5.03;;;16.50;99.90;;;;;;4206215;28;20090;-61
2021/07/24 01:02:48;;;;;;;11.35;5.20;;;16.50;99.90;;;;;;4206450;28;20113;-60
2021/07/24 01:04:49;;;;;;;8.68;5.50;;;16.50;99.90;;;;;;4207558;28;20545;-60
2021/07/24 01:06:50;;;;;;;6.40;4.80;;;16.40;99.90;;;;;;4206169;28;20137;-60
2021/07/24 01:08:51;;;;;;;8.90;5.63;;;16.40;99.90;;;;;;4207667;28;20365;-60
2021/07/24 01:10:54;;;;;;;14.90;8.32;;;16.30;99.90;;;;;;4206413;28;20553;-60
2021/07/24 01:12:56;;;;;;;15.15;10.25;;;16.30;99.90;;;;;;4206984;28;20089;-61
2021/07/24 01:14:57;;;;;;;16.77;11.25;;;16.20;99.90;;;;;;4206206;28;20024;-60
2021/07/24 01:16:59;;;;;;;18.55;10.88;;;16.10;99.90;;;;;;4207563;28;20036;-60
2021/07/24 01:19:00;;;;;;;12.40;8.55;;;16.00;99.90;;;;;;4205688;28;20044;-61
2021/07/24 01:21:09;;;;;;;12.32;8.75;;;15.90;99.90;;;;;;4207107;28;20498;-61
2021/07/24 01:23:12;;;;;;;14.65;8.93;;;15.90;99.90;;;;;;4206410;28;20032;-61
2021/07/24 01:25:13;;;;;;;12.57;7.82;;;15.80;99.90;;;;;;4207223;28;20024;-60
2021/07/24 01:27:14;;;;;;;14.27;7.60;;;15.70;99.90;;;;;;4207018;28;20447;-61
2021/07/24 01:29:17;;;;;;;12.45;7.13;;;15.60;99.90;;;;;;4207023;28;20044;-60
2021/07/24 01:31:18;;;;;;;16.92;7.32;;;15.60;99.90;;;;;;4207252;28;20536;-61
2021/07/24 01:33:20;;;;;;;12.75;8.10;;;15.50;99.90;;;;;;4206401;28;20050;-59
2021/07/24 01:35:21;;;;;;;12.07;7.35;;;15.50;99.90;;;;;;4207483;28;20097;-60
2021/07/24 01:37:22;;;;;;;11.45;7.07;;;15.50;99.90;;;;;;4206269;28;20052;-60
2021/07/24 01:39:24;;;;;;;8.18;6.03;;;15.50;99.90;;;;;;4207601;28;20488;-61
2021/07/24 01:41:25;;;;;;;11.85;6.65;;;15.50;99.90;;;;;;4206332;28;20453;-61
2021/07/24 01:43:26;;;;;;;8.55;5.70;;;15.50;99.90;;;;;;4207701;28;20040;-60
2021/07/24 01:45:28;;;;;;;9.32;6.20;;;15.50;99.90;;;;;;4206169;28;20636;-60
2021/07/24 01:47:29;;;;;;;10.43;6.30;;;15.50;99.90;;;;;;4207607;28;20028;-60
2021/07/24 01:54:30;;;;;;;17.95;8.63;;;15.40;99.90;;;;;;4206338;28;20615;-60
2021/07/24 01:56:34;;;;;;;10.73;6.10;;;15.50;99.90;;;;;;4205959;28;20447;-60
2021/07/24 01:58:36;;;;;;;7.32;6.20;;;15.50;99.90;;;;;;4206174;28;20085;-61
2021/07/24 02:00:40;;;;;;;9.43;5.68;;;15.50;99.90;;;;;;4206869;28;20096;-60
2021/07/24 02:02:43;;;;;;;12.05;5.57;;;15.50;99.90;;;;;;4206060;28;20041;-60
2021/07/24 02:04:56;;;;;;;10.50;6.85;;;15.50;99.90;;;;;;4206794;28;20426;-60
2021/07/24 02:06:57;;;;;;;9.68;6.03;;;15.50;99.90;;;;;;4205306;28;20036;-60
2021/07/24 02:08:59;;;;;;;8.68;5.38;;;15.40;99.90;;;;;;4207387;28;20090;-60
2021/07/24 02:11:01;;;;;;;10.93;6.05;;;15.40;99.90;;;;;;4205616;28;20028;-60
2021/07/24 02:13:03;;;;;;;10.23;5.32;;;15.40;99.90;;;;;;4206998;28;20464;-61
2021/07/24 02:15:04;;;;;;;7.32;5.07;;;15.40;99.90;;;;;;4205283;28;20032;-60
2021/07/24 02:17:06;;;;;;;7.97;5.10;;;15.40;99.90;;;;;;4206822;28;20070;-61
2021/07/24 02:19:07;;;;;;;8.98;5.57;;;15.40;99.90;;;;;;4206118;28;20093;-60
2021/07/24 02:21:09;;;;;;;11.05;5.60;;;15.30;99.90;;;;;;4205694;28;20040;-60
2021/07/24 02:23:10;;;;;;;7.72;5.13;;;15.30;99.90;;;;;;4206672;28;20396;-60
2021/07/24 02:25:11;;;;;;;10.57;5.47;;;15.30;99.90;;;;;;4205921;28;20024;-60
2021/07/24 02:27:13;;;;;;;9.45;5.53;;;15.30;99.90;;;;;;4206721;28;20074;-60
2021/07/24 02:29:14;;;;;;;7.28;4.88;;;15.30;99.90;;;;;;4204994;28;20161;-60
2021/07/24 02:31:15;;;;;;;9.32;5.30;;;15.20;99.90;;;;;;4209176;28;20077;-61
2021/07/24 02:33:17;;;;;;;9.18;5.82;;;15.30;99.90;;;;;;4208685;28;20528;-61
2021/07/24 02:35:18;;;;;;;9.40;4.80;;;15.20;99.90;;;;;;4209945;28;20073;-61
2021/07/24 02:37:20;;;;;;;9.50;5.50;;;15.10;99.90;;;;;;4209033;28;20075;-61
2021/07/24 02:39:21;;;;;;;8.70;5.32;;;15.20;99.90;;;;;;4210262;28;20090;-60
2021/07/24 02:41:22;;;;;;;8.77;5.63;;;15.20;99.90;;;;;;4208658;28;20036;-60
2021/07/24 02:43:25;;;;;;;10.13;5.35;;;15.20;99.90;;;;;;4209984;28;20028;-60
2021/07/24 02:45:26;;;;;;;8.07;4.78;;;15.20;99.90;;;;;;4208544;28;20020;-60
2021/07/24 02:47:27;;;;;;;8.98;5.15;;;15.20;99.90;;;;;;4209358;28;20048;-61
2021/07/24 02:49:28;;;;;;;6.97;5.25;;;15.20;99.90;;;;;;4209186;28;20040;-60
2021/07/24 02:51:29;;;;;;;9.05;5.85;;;15.20;99.90;;;;;;4209299;28;20047;-60
2021/07/24 02:53:30;;;;;;;12.70;5.28;;;15.20;99.90;;;;;;4209727;28;20028;-61
2021/07/24 02:55:31;;;;;;;8.32;5.20;;;15.10;99.90;;;;;;4208712;28;20099;-60
2021/07/24 02:57:33;;;;;;;8.95;5.97;;;15.20;99.90;;;;;;4209751;28;20372;-61
2021/07/24 02:59:35;;;;;;;8.82;5.40;;;15.10;99.90;;;;;;4208338;28;20101;-60
2021/07/24 03:01:36;;;;;;;8.65;5.18;;;15.20;99.90;;;;;;4210331;28;20044;-60
2021/07/24 03:03:37;;;;;;;7.90;4.80;;;15.10;99.90;;;;;;4208405;28;20035;-60
2021/07/24 03:05:38;;;;;;;7.07;5.05;;;15.10;99.90;;;;;;4209682;28;20028;-60
2021/07/24 03:07:39;;;;;;;12.60;4.97;;;15.10;99.90;;;;;;4208367;28;20428;-60
2021/07/24 03:09:40;;;;;;;13.10;5.25;;;15.20;99.90;;;;;;4210103;28;20094;-60
2021/07/24 03:11:42;;;;;;;9.48;5.72;;;15.20;99.90;;;;;;4208015;28;20024;-60
2021/07/24 03:13:43;;;;;;;9.98;5.10;;;15.30;99.90;;;;;;4209503;28;20546;-61
2021/07/24 03:15:45;;;;;;;6.80;5.22;;;15.40;99.90;;;;;;4207987;28;20090;-60
2021/07/24 03:17:46;;;;;;;8.93;5.20;;;15.40;99.90;;;;;;4208224;28;20051;-61
2021/07/24 03:19:48;;;;;;;9.57;5.57;;;15.60;99.90;;;;;;4208582;28;20036;-60
2021/07/24 03:21:49;;;;;;;11.40;5.70;;;15.70;99.90;;;;;;4208006;28;20655;-60
2021/07/24 03:23:50;;;;;;;9.98;4.82;;;15.90;99.90;;;;;;4209220;28;20549;-60
2021/07/24 03:25:51;;;;;;;8.95;5.05;;;16.10;99.90;;;;;;4207234;28;20016;-60
2021/07/24 03:27:52;;;;;;;11.52;5.60;;;16.20;99.90;;;;;;4209016;28;20035;-60
2021/07/24 03:29:54;;;;;;;11.70;5.03;;;16.30;99.90;;;;;;4208073;28;20542;-61
2021/07/24 03:31:55;;;;;;;6.93;5.35;;;16.50;99.90;;;;;;4209068;28;20040;-60
2021/07/24 03:33:56;;;;;;;13.02;4.82;;;16.60;99.90;;;;;;4207675;28;20373;-61
2021/07/24 03:35:57;;;;;;;8.32;5.20;;;16.90;99.90;;;;;;4208997;28;20040;-60
2021/07/24 03:38:03;;;;;;;10.77;5.82;;;17.00;99.90;;;;;;4207876;28;20434;-60
2021/07/24 03:40:05;;;;;;;14.55;5.95;;;17.30;99.90;;;;;;4208788;28;20069;-61
2021/07/24 03:42:06;;;;;;;7.95;4.70;;;17.70;99.90;;;;;;4206813;28;20056;-61
2021/07/24 03:44:07;;;;;;;5.40;4.82;;;18.10;99.90;;;;;;4208511;28;20365;-60
2021/07/24 03:46:16;;;;;;;8.80;6.28;;;18.40;99.90;;;;;;4206505;28;20040;-61
2021/07/24 03:48:17;;;;;;;12.10;5.50;;;18.70;99.90;;;;;;4209010;28;20089;-60
2021/07/24 03:50:18;;;;;;;6.30;4.80;;;18.90;99.90;;;;;;4207732;28;20061;-60
2021/07/24 03:52:19;;;;;;;6.68;4.93;;;19.10;99.90;;;;;;4208609;28;20032;-60
2021/07/24 03:54:20;;;;;;;11.27;5.10;;;19.40;99.90;;;;;;4208212;28;20028;-61
2021/07/24 03:56:21;;;;;;;9.00;4.55;;;19.70;99.90;;;;;;4208459;28;20036;-60
2021/07/24 03:58:22;;;;;;;7.45;4.32;;;19.80;99.90;;;;;;4208334;28;20488;-61
2021/07/24 04:00:24;;;;;;;6.43;4.65;;;20.00;99.90;;;;;;4206971;28;20321;-61
2021/07/24 04:02:26;;;;;;;6.80;4.55;;;20.30;99.90;;;;;;4208695;28;20090;-61
2021/07/24 04:04:27;;;;;;;9.77;4.68;;;20.40;99.90;;;;;;4207002;28;20200;-60
2021/07/24 04:06:29;;;;;;;6.40;4.72;;;20.40;99.90;;;;;;4207962;28;20105;-60
2021/07/24 04:08:31;;;;;;;5.85;4.82;;;20.10;99.90;;;;;;4207628;28;20144;-61
2021/07/24 04:10:34;;;;;;;8.40;5.72;;;20.00;99.90;;;;;;4208422;28;20048;-61
2021/07/24 04:12:37;;;;;;;8.45;5.78;;;20.20;99.90;;;;;;4207316;28;20434;-61
2021/07/24 04:14:38;;;;;;;8.48;6.05;;;20.40;99.90;;;;;;4208722;28;20105;-61
2021/07/24 04:16:39;;;;;;;12.05;8.23;;;20.40;99.90;;;;;;4207149;28;20541;-61
2021/07/24 04:18:40;;;;;;;15.10;9.05;;;20.50;99.90;;;;;;4208547;28;20058;-60
2021/07/24 04:20:42;;;;;;;16.17;8.48;;;21.10;99.90;;;;;;4206967;28;20093;-60
2021/07/24 04:22:43;;;;;;;14.20;7.35;;;21.70;99.90;;;;;;4208087;28;20551;-61
2021/07/24 04:24:44;;;;;;;19.75;6.85;;;22.10;99.90;;;;;;4207236;28;20066;-61
2021/07/24 04:26:45;;;;;;;11.30;6.43;;;22.50;99.90;;;;;;4207341;28;20048;-61
2021/07/24 04:28:46;;;;;;;13.63;6.43;;;22.90;99.90;;;;;;4206987;28;20093;-61
2021/07/24 04:30:48;;;;;;;12.25;5.50;;;23.30;99.90;;;;;;4207083;28;20032;-61
2021/07/24 04:32:49;;;;;;;8.90;5.43;;;23.60;99.90;;;;;;4206541;28;20040;-61
2021/07/24 04:34:50;;;;;;;11.70;5.85;;;23.60;99.90;;;;;;4206798;28;20488;-61
2021/07/24 04:36:51;;;;;;;14.77;5.18;;;23.70;99.90;;;;;;4207887;28;20031;-60
2021/07/24 04:38:52;;;;;;;6.82;4.22;;;23.70;99.90;;;;;;4206807;28;20093;-61
2021/07/24 04:40:54;;;;;;;7.88;4.55;;;24.00;99.90;;;;;;4208039;28;20055;-61
2021/07/24 04:42:55;;;;;;;11.57;4.60;;;24.10;99.90;;;;;;4206962;28;20476;-64
2021/07/24 04:44:56;;;;;;;9.35;4.75;;;24.60;99.80;;;;;;4207922;28;20053;-61
2021/07/24 04:46:58;;;;;;;5.82;4.63;;;24.80;99.20;;;;;;4206702;28;20488;-60
2021/07/24 04:48:59;;;;;;;10.80;4.28;;;25.00;98.90;;;;;;4207881;28;20110;-61
2021/07/24 04:51:00;;;;;;;6.18;3.90;;;25.00;98.40;;;;;;4206848;28;20137;-61
2021/07/24 04:53:03;;;;;;;8.95;3.72;;;25.30;97.90;;;;;;4206960;28;20032;-61
2021/07/24 04:55:04;;;;;;;4.88;3.67;;;25.40;97.20;;;;;;4206449;28;20100;-61
2021/07/24 04:57:06;;;;;;;3.75;3.35;;;25.80;96.80;;;;;;4207213;28;20048;-61
2021/07/24 04:59:07;;;;;;;3.88;2.83;;;26.20;95.70;;;;;;4206890;28;20032;-61
2021/07/24 05:01:08;;;;;;;3.33;2.97;;;26.30;95.20;;;;;;4206553;28;20047;-61
2021/07/24 05:03:14;;;;;;;5.18;3.20;;;26.40;94.50;;;;;;4207954;28;20389;-61
2021/07/24 05:05:15;;;;;;;8.48;4.32;;;26.70;93.90;;;;;;4214322;28;20036;-61
2021/07/24 05:07:18;;;;;;;7.45;3.28;;;27.00;93.60;;;;;;4224311;28;20028;-62
2021/07/24 05:09:19;;;;;;;4.68;2.97;;;27.20;92.90;;;;;;4209117;28;20089;-62
2021/07/24 05:11:20;;;;;;;6.60;3.38;;;27.50;92.30;;;;;;4207238;28;20032;-61
2021/07/24 05:13:21;;;;;;;3.97;2.75;;;27.90;91.70;;;;;;4206245;28;20032;-62
2021/07/24 05:15:24;;;;;;;7.05;2.85;;;28.10;91.10;;;;;;4207482;28;20082;-62
2021/07/24 05:17:25;;;;;;;5.32;3.03;;;28.20;90.40;;;;;;4205565;28;20040;-61
2021/07/24 05:19:26;;;;;;;4.10;3.20;;;28.30;90.10;;;;;;4207145;28;20093;-60
2021/07/24 05:21:27;;;;;;;7.93;2.92;;;28.40;89.10;;;;;;4206193;28;20085;-60
2021/07/24 05:23:29;;;;;;;5.10;3.30;;;28.30;87.80;;;;;;4207098;28;20476;-60
2021/07/24 05:25:30;;;;;;;6.70;2.75;;;28.10;87.40;;;;;;4205956;28;20053;-61
2021/07/24 05:27:31;;;;;;;4.13;3.25;;;27.60;87.50;;;;;;4193061;28;20028;-61
2021/07/24 05:29:33;;;;;;;7.97;3.58;;;27.70;87.60;;;;;;4189576;28;20036;-61
2021/07/24 05:31:34;;;;;;;6.00;3.25;;;28.10;86.80;;;;;;4190696;28;20097;-61
2021/07/24 05:33:35;;;;;;;7.95;3.28;;;28.40;85.70;;;;;;4190254;28;20024;-60
2021/07/24 05:35:36;;;;;;;4.53;3.50;;;28.40;84.80;;;;;;4189638;28;20040;-60
2021/07/24 05:37:37;;;;;;;13.85;6.60;;;28.20;84.00;;;;;;4190413;28;20040;-61
2021/07/24 05:39:38;;;;;;;8.15;4.68;;;27.30;84.50;;;;;;4188782;28;20040;-61
2021/07/24 05:41:39;;;;;;;15.55;6.30;;;26.90;85.50;;;;;;4189944;28;20837;-61
2021/07/24 05:43:40;;;;;;;11.95;6.28;;;26.20;87.50;;;;;;4188410;28;20036;-60
2021/07/24 05:45:41;;;;;;;17.48;6.65;;;26.20;88.90;;;;;;4189970;28;20605;-60
2021/07/24 05:47:42;;;;;;;11.02;6.72;;;25.50;90.00;;;;;;4191788;28;20036;-60
2021/07/24 05:49:44;;;;;;;18.10;6.65;;;25.10;90.60;;;;;;4206504;28;20028;-59
2021/07/24 05:51:45;;;;;;;17.73;7.50;;;24.90;91.00;;;;;;4205525;28;20081;-60
2021/07/24 05:53:46;;;;;;;11.93;6.97;;;25.00;91.10;;;;;;4206283;28;20127;-60
2021/07/24 05:55:47;;;;;;;18.15;6.85;;;25.20;91.10;;;;;;4204128;28;20036;-60
2021/07/24 05:57:48;;;;;;;22.50;6.70;;;25.90;90.60;;;;;;4206858;28;20036;-60
2021/07/24 05:59:50;;;;;;;16.65;7.55;;;25.80;90.20;;;;;;4205978;28;20016;-61
2021/07/24 06:01:51;;;;;;;21.15;8.07;;;25.60;90.50;;;;;;4206478;28;20039;-60
2021/07/24 06:03:52;;;;;;;15.70;7.65;;;25.10;90.70;;;;;;4207004;28;20049;-60
2021/07/24 06:05:53;;;;;;;17.63;8.43;;;24.50;91.20;;;;;;4209287;28;20073;-60
2021/07/24 06:07:54;;;;;;;19.50;6.97;;;24.20;91.70;;;;;;4191773;28;20029;-61
2021/07/24 06:09:55;;;;;;;22.95;7.47;;;23.90;92.30;;;;;;4192701;28;20055;-60
2021/07/24 06:11:56;;;;;;;20.90;8.50;;;23.90;92.60;;;;;;4194653;28;20041;-60
2021/07/24 06:13:57;;;;;;;17.63;8.23;;;24.20;92.30;;;;;;4208771;28;20036;-61
2021/07/24 06:15:59;;;;;;;19.08;7.53;;;24.30;92.10;;;;;;4209323;28;20561;-61
2021/07/24 06:18:00;;;;;;;22.92;8.35;;;24.50;92.10;;;;;;4208622;28;20104;-60
2021/07/24 06:20:02;;;;;;;18.90;8.32;;;24.80;92.10;;;;;;4210277;28;20040;-62
2021/07/24 06:22:03;;;;;;;32.97;9.05;;;24.70;91.90;;;;;;4208888;28;20036;-60
2021/07/24 06:24:04;;;;;;;16.17;7.25;;;24.70;92.00;;;;;;4210314;28;20032;-62
2021/07/24 06:26:05;;;;;;;25.65;7.90;;;24.90;91.80;;;;;;4208151;28;20036;-63
2021/07/24 06:28:06;;;;;;;22.70;6.97;;;24.60;91.60;;;;;;4209492;28;20066;-63
2021/07/24 06:30:11;;;;;;;17.83;7.03;;;24.50;92.00;;;;;;4209704;28;20036;-63
2021/07/24 06:32:12;;;;;;;14.82;6.47;;;24.60;92.10;;;;;;4209596;28;20041;-63
2021/07/24 06:34:13;;;;;;;21.13;6.55;;;24.80;92.10;;;;;;4209135;28;20032;-61
2021/07/24 06:36:14;;;;;;;18.63;6.32;;;25.20;91.70;;;;;;4205106;28;20640;-61
2021/07/24 06:38:15;;;;;;;16.58;5.97;;;25.80;91.30;;;;;;4191961;28;20032;-61
2021/07/24 06:40:16;;;;;;;12.05;5.07;;;25.60;91.20;;;;;;4191971;28;20101;-62
2021/07/24 06:42:17;;;;;;;16.35;7.00;;;25.40;91.30;;;;;;4214600;28;20093;-63
2021/07/24 06:44:20;;;;;;;14.90;5.35;;;25.30;91.60;;;;;;4224416;28;20031;-63
2021/07/24 06:46:22;;;;;;;11.68;5.18;;;25.20;91.60;;;;;;4210184;28;20032;-61
2021/07/24 06:48:23;;;;;;;8.55;5.05;;;25.30;91.50;;;;;;4207740;28;20085;-62
2021/07/24 06:50:25;;;;;;;6.68;4.65;;;25.30;91.60;;;;;;4207646;28;20048;-65
2021/07/24 06:52:26;;;;;;;8.98;4.43;;;25.00;91.60;;;;;;4207877;28;20103;-62
2021/07/24 06:54:27;;;;;;;8.35;5.30;;;25.00;91.80;;;;;;4209260;28;20028;-65
2021/07/24 06:56:28;;;;;;;8.93;5.28;;;24.90;91.90;;;;;;4207784;28;20081;-62
2021/07/24 06:58:31;;;;;;;10.43;4.85;;;24.70;92.50;;;;;;4209143;28;20028;-63
2021/07/24 07:00:33;;;;;;;8.88;5.65;;;24.60;92.70;;;;;;4208123;28;20117;-63
2021/07/24 07:02:34;;;;;;;6.63;4.47;;;24.40;93.40;;;;;;4208679;28;20028;-64
2021/07/24 07:04:35;;;;;;;8.23;5.03;;;24.50;93.60;;;;;;4208220;28;20188;-63
2021/07/24 07:06:40;;;;;;;9.55;4.97;;;24.60;93.50;;;;;;4208572;28;20021;-63
2021/07/24 07:08:41;;;;;;;6.65;5.18;;;24.40;93.70;;;;;;4209095;28;20024;-63
2021/07/24 07:10:42;;;;;;;8.85;5.15;;;24.30;93.70;;;;;;4208078;28;20089;-62
2021/07/24 07:12:43;;;;;;;8.13;5.53;;;24.30;93.70;;;;;;4209166;28;20027;-63
2021/07/24 07:14:44;;;;;;;8.73;3.97;;;24.30;93.70;;;;;;4207438;28;20058;-62
2021/07/24 07:16:46;;;;;;;8.85;5.35;;;24.20;93.80;;;;;;4208245;28;20109;-63
2021/07/24 07:18:47;;;;;;;9.80;4.65;;;24.30;93.80;;;;;;4207719;28;20570;-62
2021/07/24 07:20:48;;;;;;;6.20;4.80;;;24.30;93.90;;;;;;4208294;28;20563;-63
2021/07/24 07:22:49;;;;;;;5.68;4.28;;;24.40;93.80;;;;;;4207827;28;20385;-63
2021/07/24 07:24:50;;;;;;;6.95;4.22;;;24.50;93.60;;;;;;4208525;28;20097;-64
2021/07/24 07:26:51;;;;;;;7.55;4.88;;;24.70;93.30;;;;;;4207422;28;20047;-63
2021/07/24 07:28:54;;;;;;;11.30;4.60;;;24.80;92.90;;;;;;4208299;28;20097;-64
2021/07/24 07:30:55;;;;;;;7.32;4.18;;;24.70;92.90;;;;;;4208636;28;20044;-63
2021/07/24 07:32:56;;;;;;;7.18;4.43;;;24.40;93.10;;;;;;4208625;28;20040;-65
2021/07/24 07:34:57;;;;;;;7.50;4.43;;;24.60;93.30;;;;;;4207672;28;20098;-61
2021/07/24 07:36:58;;;;;;;8.98;4.68;;;24.60;93.30;;;;;;4207934;28;20089;-65
2021/07/24 07:39:00;;;;;;;14.43;4.38;;;24.50;93.10;;;;;;4207971;28;20036;-63
2021/07/24 07:41:01;;;;;;;17.00;4.95;;;24.50;93.20;;;;;;4207405;28;20113;-64
2021/07/24 07:43:04;;;;;;;8.88;5.72;;;24.50;93.40;;;;;;4208102;28;20077;-65
2021/07/24 07:45:06;;;;;;;11.15;4.78;;;24.50;93.50;;;;;;4207099;28;20024;-64
2021/07/24 07:47:07;;;;;;;10.02;5.40;;;24.50;93.60;;;;;;4208773;28;20101;-63
2021/07/24 07:49:08;;;;;;;8.85;5.40;;;24.70;93.50;;;;;;4207074;28;20032;-62
2021/07/24 07:51:09;;;;;;;9.65;5.18;;;24.70;93.40;;;;;;4208856;28;20028;-64
2021/07/24 07:53:11;;;;;;;7.28;5.22;;;24.40;93.80;;;;;;4207661;28;20035;-66
2021/07/24 07:55:12;;;;;;;9.70;5.25;;;24.30;94.40;;;;;;4208565;28;20020;-63
2021/07/24 07:57:13;;;;;;;11.77;5.05;;;24.30;94.30;;;;;;4206226;28;20377;-63
2021/07/24 07:59:14;;;;;;;9.02;4.97;;;24.30;94.40;;;;;;4208338;28;20048;-66
2021/07/24 08:01:15;;;;;;;7.85;4.65;;;24.30;94.30;;;;;;4203122;28;20865;-64
2021/07/24 08:03:16;;;;;;;11.13;5.63;;;24.50;94.30;;;;;;4207891;28;20105;-64
2021/07/24 08:05:18;;;;;;;6.50;5.13;;;24.50;94.10;;;;;;4208194;28;20024;-62
2021/07/24 08:07:19;;;;;;;10.07;4.88;;;24.50;94.20;;;;;;4208100;28;20028;-64
2021/07/24 08:09:20;;;;;;;8.77;4.72;;;24.80;94.00;;;;;;4207709;28;20043;-63
2021/07/24 08:11:22;;;;;;;8.02;4.35;;;24.90;94.00;;;;;;4207658;28;20035;-63
2021/07/24 08:13:25;;;;;;;11.52;5.22;;;25.00;93.80;;;;;;4207968;28;20043;-63
2021/07/24 08:15:26;;;;;;;9.23;6.07;;;24.80;94.10;;;;;;4207445;28;20761;-63
2021/07/24 08:17:27;;;;;;;7.07;4.50;;;24.70;94.10;;;;;;4208580;28;20560;-63
2021/07/24 08:19:28;;;;;;;8.93;4.95;;;24.90;94.20;;;;;;4207397;28;20109;-63
2021/07/24 08:21:29;;;;;;;7.20;4.85;;;25.00;94.10;;;;;;4207915;28;20036;-63
2021/07/24 08:23:33;;;;;;;8.10;4.90;;;25.20;94.00;;;;;;4206692;28;20072;-63
2021/07/24 08:25:35;;;;;;;7.05;4.95;;;25.20;93.80;;;;;;4208027;28;20116;-62
2021/07/24 08:27:36;;;;;;;8.27;4.60;;;25.30;93.80;;;;;;4206399;28;20112;-63
2021/07/24 08:29:37;;;;;;;8.38;4.57;;;25.50;93.80;;;;;;4207583;28;20731;-61
2021/07/24 08:31:39;;;;;;;5.80;4.05;;;25.50;93.70;;;;;;4206727;28;20386;-61
2021/07/24 08:33:40;;;;;;;8.48;6.13;;;25.70;93.40;;;;;;4207912;28;20044;-62
2021/07/24 08:35:41;;;;;;;8.20;4.70;;;25.50;93.30;;;;;;4206260;28;20548;-61
2021/07/24 08:37:42;;;;;;;9.38;4.47;;;25.70;93.20;;;;;;4206887;28;20057;-61
2021/07/24 08:39:44;;;;;;;9.15;4.53;;;25.70;92.90;;;;;;4207000;28;20044;-62
2021/07/24 08:41:45;;;;;;;7.22;4.30;;;25.50;93.10;;;;;;4206321;28;20393;-62
2021/07/24 08:43:46;;;;;;;14.32;6.60;;;25.20;93.50;;;;;;4207276;28;20040;-61
2021/07/24 08:45:47;;;;;;;6.82;4.22;;;25.10;93.80;;;;;;4205995;28;20036;-61
2021/07/24 08:47:49;;;;;;;6.90;4.25;;;25.30;93.40;;;;;;4207381;28;20086;-63
2021/07/24 08:49:50;;;;;;;9.18;3.90;;;25.30;93.40;;;;;;4205866;28;20595;-61
2021/07/24 08:51:53;;;;;;;11.43;4.38;;;25.40;92.80;;;;;;4207854;28;20032;-62
2021/07/24 08:53:54;;;;;;;5.22;3.80;;;25.40;92.40;;;;;;4204873;28;20077;-61
2021/07/24 08:56:05;;;;;;;6.28;3.75;;;25.40;92.10;;;;;;4199752;28;20441;-60
2021/07/24 08:58:10;;;;;;;5.60;3.45;;;25.50;90.70;;;;;;4213958;28;20550;-59
2021/07/24 09:00:14;;;;;;;4.10;3.75;;;25.70;91.20;;;;;;4206003;28;20554;-59
2021/07/24 09:02:23;;;;;;;8.20;4.32;;;25.80;91.10;;;;;;4204514;28;20055;-60
2021/07/24 09:04:25;;;;;;;5.05;3.97;;;25.70;90.50;;;;;;4205588;28;20024;-62
2021/07/24 09:06:29;;;;;;;6.57;3.28;;;25.80;90.70;;;;;;4204372;28;20509;-61
2021/07/24 09:08:31;;;;;;;5.15;3.97;;;25.80;90.20;;;;;;4205898;28;20101;-61
2021/07/24 09:10:32;;;;;;;5.65;3.85;;;25.70;90.40;;;;;;4204432;28;20557;-60
2021/07/24 09:12:35;;;;;;;5.25;4.10;;;25.70;90.60;;;;;;4205466;28;20044;-62
2021/07/24 09:14:36;;;;;;;5.40;3.58;;;25.90;90.50;;;;;;4204000;28;20024;-61
2021/07/24 09:16:40;;;;;;;5.57;3.58;;;25.90;90.30;;;;;;4205225;28;20105;-62
2021/07/24 09:18:42;;;;;;;8.55;3.75;;;25.90;90.40;;;;;;4204981;28;20024;-60
2021/07/24 09:20:46;;;;;;;6.20;3.72;;;26.00;90.10;;;;;;4204937;28;20468;-61
2021/07/24 09:22:47;;;;;;;5.15;3.90;;;25.90;90.00;;;;;;4204598;28;20040;-61
2021/07/24 09:25:06;;;;;;;5.72;4.47;;;25.80;90.20;;;;;;4204497;28;20492;-61
2021/07/24 09:27:23;;;;;;;5.33;3.67;;;25.60;90.00;;;;;;4204333;28;20101;-61
2021/07/24 09:29:24;;;;;;;5.15;4.18;;;25.90;90.20;;;;;;4204959;28;20032;-61
2021/07/24 09:31:25;;;;;;;7.03;3.72;;;26.20;90.10;;;;;;4205218;28;20036;-61
2021/07/24 09:33:26;;;;;;;4.75;3.22;;;26.00;89.70;;;;;;4204675;28;20036;-60
2021/07/24 09:35:57;;;;;;;5.68;3.88;;;25.90;89.40;;;;;;4205242;28;20089;-61
2021/07/24 09:37:58;;;;;;;6.05;2.88;;;25.90;88.40;;;;;;4198114;28;20044;-60
2021/07/24 09:40:22;;;;;;;4.65;3.33;;;25.90;88.70;;;;;;4203635;28;20040;-62
2021/07/24 09:42:33;;;;;;;6.57;3.40;;;25.80;86.90;;;;;;4202757;28;20747;-62
2021/07/24 09:44:36;;;;;;;4.13;3.08;;;25.90;86.90;;;;;;4204882;28;20622;-62
2021/07/24 09:46:37;;;;;;;8.23;3.20;;;25.90;87.60;;;;;;4204993;28;20157;-61
2021/07/24 09:48:40;;;;;;;5.00;3.65;;;25.90;86.00;;;;;;4205222;28;20077;-61
2021/07/24 09:50:47;;;;;;;4.07;3.40;;;25.90;86.00;;;;;;4204446;28;20069;-61
2021/07/24 09:52:53;;;;;;;4.88;3.90;;;26.10;86.20;;;;;;4204673;28;20036;-60
2021/07/24 09:55:15;;;;;;;4.32;3.33;;;26.20;85.40;;;;;;4204226;28;20062;-60
2021/07/24 09:57:32;;;;;;;6.35;3.95;;;26.10;85.00;;;;;;4199476;28;20032;-62
2021/07/24 09:59:35;;;;;;;3.58;3.25;;;26.20;83.50;;;;;;4203534;28;20097;-60
2021/07/24 10:01:36;;;;;;;6.43;3.60;;;26.20;84.40;;;;;;4205200;28;20047;-61
2021/07/24 10:03:39;;;;;;;8.15;3.30;;;26.20;83.80;;;;;;4204324;28;20405;-60
2021/07/24 10:05:41;;;;;;;16.88;8.07;;;26.30;83.00;;;;;;4205027;28;20129;-61
2021/07/24 10:07:43;;;;;;;7.88;3.72;;;26.50;82.90;;;;;;4203438;28;20122;-61
2021/07/24 10:09:45;;;;;;;6.00;3.50;;;26.50;83.00;;;;;;4205648;28;20122;-61
2021/07/24 10:11:46;;;;;;;5.32;3.45;;;26.80;83.30;;;;;;4203672;28;20070;-61
2021/07/24 10:13:48;;;;;;;5.00;3.15;;;27.00;83.60;;;;;;4205173;28;20093;-60
2021/07/24 10:15:49;;;;;;;5.45;3.30;;;27.20;84.00;;;;;;4203834;28;20040;-61
2021/07/24 10:17:50;;;;;;;4.72;3.70;;;27.30;83.80;;;;;;4205472;28;20097;-61
2021/07/24 10:19:52;;;;;;;4.40;3.33;;;27.30;83.50;;;;;;4204279;28;20085;-61
2021/07/24 10:21:56;;;;;;;3.90;3.03;;;27.20;82.30;;;;;;4205694;28;20565;-61
2021/07/24 10:23:57;;;;;;;3.95;3.03;;;27.10;81.10;;;;;;4204261;28;20101;-63
2021/07/24 10:26:09;;;;;;;4.70;3.15;;;27.00;80.70;;;;;;4205613;28;20040;-61
2021/07/24 10:28:12;;;;;;;5.15;3.08;;;27.00;79.80;;;;;;4203281;28;20044;-61
2021/07/24 10:30:15;;;;;;;9.38;3.20;;;27.20;79.70;;;;;;4205285;28;20089;-62
2021/07/24 10:32:25;;;;;;;4.38;2.90;;;27.30;78.40;;;;;;4204803;28;20066;-61
2021/07/24 10:34:30;;;;;;;3.03;2.60;;;27.10;76.70;;;;;;4205279;28;20035;-62
2021/07/24 10:36:40;;;;;;;3.10;2.80;;;27.00;76.90;;;;;;4202890;28;20093;-61
2021/07/24 10:39:03;;;;;;;3.03;2.72;;;26.90;73.40;;;;;;4205043;28;20040;-61